sensor_id;sensor_type;location;lat;lon;timestamp;P1;durP1;ratioP1;P2;durP2;ratioP2
50519;SDS011;36468;44.098;3.078;2023-02-28T00:01:41;11.13;;;7.28;;
50519;SDS011;36468;44.098;3.078;2023-02-28T00:04:07;13.55;;;7.70;;
50519;SDS011;36468;44.098;3.078;2023-02-28T00:06:34;10.65;;;7.18;;
50519;SDS011;36468;44.098;3.078;2023-02-28T00:09:00;12.90;;;7.45;;
50519;SDS011;36468;44.098;3.078;2023-02-28T00:11:26;12.52;;;7.65;;
50519;SDS011;36468;44.098;3.078;2023-02-28T00:13:52;13.68;;;7.18;;
50519;SDS011;36468;44.098;3.078;2023-02-28T00:16:19;13.15;;;6.97;;
50519;SDS011;36468;44.098;3.078;2023-02-28T00:18:45;11.25;;;7.45;;
50519;SDS011;36468;44.098;3.078;2023-02-28T00:21:12;12.10;;;7.03;;
50519;SDS011;36468;44.098;3.078;2023-02-28T00:23:38;12.48;;;7.65;;
50519;SDS011;36468;44.098;3.078;2023-02-28T00:26:04;12.50;;;6.80;;
50519;SDS011;36468;44.098;3.078;2023-02-28T00:28:31;14.10;;;7.22;;
50519;SDS011;36468;44.098;3.078;2023-02-28T00:30:57;11.10;;;7.20;;
50519;SDS011;36468;44.098;3.078;2023-02-28T00:33:24;13.52;;;7.78;;
50519;SDS011;36468;44.098;3.078;2023-02-28T00:35:51;10.88;;;7.47;;
50519;SDS011;36468;44.098;3.078;2023-02-28T00:38:17;11.35;;;7.50;;
50519;SDS011;36468;44.098;3.078;2023-02-28T00:40:43;10.55;;;7.28;;
50519;SDS011;36468;44.098;3.078;2023-02-28T00:43:09;13.90;;;7.65;;
50519;SDS011;36468;44.098;3.078;2023-02-28T00:45:35;12.95;;;8.07;;
50519;SDS011;36468;44.098;3.078;2023-02-28T00:48:01;11.73;;;7.20;;
50519;SDS011;36468;44.098;3.078;2023-02-28T00:50:27;11.68;;;7.72;;
50519;SDS011;36468;44.098;3.078;2023-02-28T00:52:53;10.88;;;7.03;;
50519;SDS011;36468;44.098;3.078;2023-02-28T00:55:19;11.35;;;7.05;;
50519;SDS011;36468;44.098;3.078;2023-02-28T00:57:46;11.30;;;6.88;;
50519;SDS011;36468;44.098;3.078;2023-02-28T01:00:12;12.07;;;6.82;;
50519;SDS011;36468;44.098;3.078;2023-02-28T01:02:38;10.25;;;6.47;;
50519;SDS011;36468;44.098;3.078;2023-02-28T01:05:04;12.07;;;7.35;;
50519;SDS011;36468;44.098;3.078;2023-02-28T01:07:30;11.02;;;6.80;;
50519;SDS011;36468;44.098;3.078;2023-02-28T01:09:56;9.57;;;6.70;;
50519;SDS011;36468;44.098;3.078;2023-02-28T01:12:22;11.00;;;6.78;;
50519;SDS011;36468;44.098;3.078;2023-02-28T01:14:48;9.40;;;5.95;;
50519;SDS011;36468;44.098;3.078;2023-02-28T01:17:14;11.77;;;6.55;;
50519;SDS011;36468;44.098;3.078;2023-02-28T01:19:40;9.20;;;6.63;;
50519;SDS011;36468;44.098;3.078;2023-02-28T01:22:06;9.20;;;6.50;;
50519;SDS011;36468;44.098;3.078;2023-02-28T01:24:33;10.40;;;7.22;;
50519;SDS011;36468;44.098;3.078;2023-02-28T01:26:59;9.52;;;6.45;;
50519;SDS011;36468;44.098;3.078;2023-02-28T01:29:25;10.25;;;7.15;;
50519;SDS011;36468;44.098;3.078;2023-02-28T01:31:51;10.07;;;7.10;;
50519;SDS011;36468;44.098;3.078;2023-02-28T01:34:17;10.60;;;7.22;;
50519;SDS011;36468;44.098;3.078;2023-02-28T01:36:44;9.68;;;6.85;;
50519;SDS011;36468;44.098;3.078;2023-02-28T01:39:10;9.65;;;6.43;;
50519;SDS011;36468;44.098;3.078;2023-02-28T01:41:38;13.13;;;6.95;;
50519;SDS011;36468;44.098;3.078;2023-02-28T01:46:51;9.52;;;7.03;;
50519;SDS011;36468;44.098;3.078;2023-02-28T01:49:17;10.63;;;6.63;;
50519;SDS011;36468;44.098;3.078;2023-02-28T01:51:45;9.93;;;7.03;;
50519;SDS011;36468;44.098;3.078;2023-02-28T01:54:19;14.10;;;7.20;;
50519;SDS011;36468;44.098;3.078;2023-02-28T01:56:47;11.15;;;6.47;;
50519;SDS011;36468;44.098;3.078;2023-02-28T01:59:18;15.80;;;6.88;;
50519;SDS011;36468;44.098;3.078;2023-02-28T02:01:46;10.18;;;6.78;;
50519;SDS011;36468;44.098;3.078;2023-02-28T02:04:12;11.20;;;6.93;;
50519;SDS011;36468;44.098;3.078;2023-02-28T02:06:43;10.02;;;6.40;;
50519;SDS011;36468;44.098;3.078;2023-02-28T02:09:09;11.13;;;6.85;;
50519;SDS011;36468;44.098;3.078;2023-02-28T02:11:35;8.85;;;6.30;;
50519;SDS011;36468;44.098;3.078;2023-02-28T02:24:40;10.73;;;6.55;;
50519;SDS011;36468;44.098;3.078;2023-02-28T02:34:44;9.40;;;6.10;;
50519;SDS011;36468;44.098;3.078;2023-02-28T02:42:13;8.75;;;6.45;;
50519;SDS011;36468;44.098;3.078;2023-02-28T02:44:42;11.35;;;6.90;;
50519;SDS011;36468;44.098;3.078;2023-02-28T02:47:13;14.57;;;6.45;;
50519;SDS011;36468;44.098;3.078;2023-02-28T02:49:42;8.20;;;6.18;;
50519;SDS011;36468;44.098;3.078;2023-02-28T02:52:09;9.23;;;6.40;;
50519;SDS011;36468;44.098;3.078;2023-02-28T02:54:37;11.57;;;6.68;;
50519;SDS011;36468;44.098;3.078;2023-02-28T02:57:06;11.48;;;6.55;;
50519;SDS011;36468;44.098;3.078;2023-02-28T02:59:33;8.98;;;6.18;;
50519;SDS011;36468;44.098;3.078;2023-02-28T03:02:01;11.88;;;6.40;;
50519;SDS011;36468;44.098;3.078;2023-02-28T03:04:30;9.35;;;6.10;;
50519;SDS011;36468;44.098;3.078;2023-02-28T03:06:57;13.23;;;6.35;;
50519;SDS011;36468;44.098;3.078;2023-02-28T03:09:23;10.00;;;6.07;;
50519;SDS011;36468;44.098;3.078;2023-02-28T03:11:50;9.45;;;6.40;;
50519;SDS011;36468;44.098;3.078;2023-02-28T03:17:19;8.98;;;5.95;;
50519;SDS011;36468;44.098;3.078;2023-02-28T03:22:40;10.90;;;6.10;;
50519;SDS011;36468;44.098;3.078;2023-02-28T03:25:16;12.27;;;6.15;;
50519;SDS011;36468;44.098;3.078;2023-02-28T03:30:24;8.98;;;5.57;;
50519;SDS011;36468;44.098;3.078;2023-02-28T03:35:21;8.57;;;5.70;;
50519;SDS011;36468;44.098;3.078;2023-02-28T03:37:49;9.82;;;5.85;;
50519;SDS011;36468;44.098;3.078;2023-02-28T03:40:20;7.95;;;5.95;;
50519;SDS011;36468;44.098;3.078;2023-02-28T03:42:48;8.60;;;6.00;;
50519;SDS011;36468;44.098;3.078;2023-02-28T03:47:43;10.13;;;6.03;;
50519;SDS011;36468;44.098;3.078;2023-02-28T03:50:13;9.05;;;5.85;;
50519;SDS011;36468;44.098;3.078;2023-02-28T03:52:43;10.13;;;6.35;;
50519;SDS011;36468;44.098;3.078;2023-02-28T03:55:10;10.02;;;5.90;;
50519;SDS011;36468;44.098;3.078;2023-02-28T04:00:25;10.15;;;5.75;;
50519;SDS011;36468;44.098;3.078;2023-02-28T04:02:53;11.73;;;6.30;;
50519;SDS011;36468;44.098;3.078;2023-02-28T04:05:20;8.27;;;5.70;;
50519;SDS011;36468;44.098;3.078;2023-02-28T04:07:46;8.13;;;5.75;;
50519;SDS011;36468;44.098;3.078;2023-02-28T04:10:13;8.32;;;5.70;;
50519;SDS011;36468;44.098;3.078;2023-02-28T04:12:40;12.68;;;6.43;;
50519;SDS011;36468;44.098;3.078;2023-02-28T04:15:06;12.65;;;6.05;;
50519;SDS011;36468;44.098;3.078;2023-02-28T04:17:32;10.80;;;5.82;;
50519;SDS011;36468;44.098;3.078;2023-02-28T04:19:58;10.85;;;5.82;;
50519;SDS011;36468;44.098;3.078;2023-02-28T04:22:24;7.85;;;5.10;;
50519;SDS011;36468;44.098;3.078;2023-02-28T04:24:51;9.45;;;5.70;;
50519;SDS011;36468;44.098;3.078;2023-02-28T04:27:19;12.00;;;6.00;;
50519;SDS011;36468;44.098;3.078;2023-02-28T04:29:45;11.48;;;6.35;;
50519;SDS011;36468;44.098;3.078;2023-02-28T04:32:11;11.00;;;6.18;;
50519;SDS011;36468;44.098;3.078;2023-02-28T04:34:37;11.50;;;6.57;;
50519;SDS011;36468;44.098;3.078;2023-02-28T04:37:03;10.02;;;5.97;;
50519;SDS011;36468;44.098;3.078;2023-02-28T04:39:30;10.13;;;5.50;;
50519;SDS011;36468;44.098;3.078;2023-02-28T04:41:56;8.80;;;6.10;;
50519;SDS011;36468;44.098;3.078;2023-02-28T04:44:22;9.23;;;5.80;;
50519;SDS011;36468;44.098;3.078;2023-02-28T04:46:48;10.82;;;6.40;;
50519;SDS011;36468;44.098;3.078;2023-02-28T04:49:15;9.82;;;6.15;;
50519;SDS011;36468;44.098;3.078;2023-02-28T04:51:41;9.00;;;5.80;;
50519;SDS011;36468;44.098;3.078;2023-02-28T04:54:07;8.02;;;5.93;;
50519;SDS011;36468;44.098;3.078;2023-02-28T04:56:34;9.98;;;6.35;;
50519;SDS011;36468;44.098;3.078;2023-02-28T04:59:00;13.70;;;6.05;;
50519;SDS011;36468;44.098;3.078;2023-02-28T05:01:28;11.18;;;5.90;;
50519;SDS011;36468;44.098;3.078;2023-02-28T05:03:55;9.68;;;5.85;;
50519;SDS011;36468;44.098;3.078;2023-02-28T05:06:22;8.35;;;5.65;;
50519;SDS011;36468;44.098;3.078;2023-02-28T05:08:48;13.25;;;6.10;;
50519;SDS011;36468;44.098;3.078;2023-02-28T05:11:36;11.50;;;6.25;;
50519;SDS011;36468;44.098;3.078;2023-02-28T05:14:06;8.30;;;5.65;;
50519;SDS011;36468;44.098;3.078;2023-02-28T05:16:33;11.02;;;6.00;;
50519;SDS011;36468;44.098;3.078;2023-02-28T05:18:59;9.25;;;6.03;;
50519;SDS011;36468;44.098;3.078;2023-02-28T05:21:26;11.50;;;6.38;;
50519;SDS011;36468;44.098;3.078;2023-02-28T05:23:53;9.98;;;6.22;;
50519;SDS011;36468;44.098;3.078;2023-02-28T05:26:20;10.05;;;6.32;;
50519;SDS011;36468;44.098;3.078;2023-02-28T05:28:46;11.18;;;6.13;;
50519;SDS011;36468;44.098;3.078;2023-02-28T05:31:12;9.77;;;6.03;;
50519;SDS011;36468;44.098;3.078;2023-02-28T05:33:38;10.50;;;6.05;;
50519;SDS011;36468;44.098;3.078;2023-02-28T05:36:05;13.95;;;7.18;;
50519;SDS011;36468;44.098;3.078;2023-02-28T05:38:31;12.10;;;6.45;;
50519;SDS011;36468;44.098;3.078;2023-02-28T05:40:57;10.40;;;6.30;;
50519;SDS011;36468;44.098;3.078;2023-02-28T05:43:23;9.85;;;6.57;;
50519;SDS011;36468;44.098;3.078;2023-02-28T05:45:50;8.95;;;5.20;;
50519;SDS011;36468;44.098;3.078;2023-02-28T05:48:16;11.50;;;5.90;;
50519;SDS011;36468;44.098;3.078;2023-02-28T05:50:43;11.00;;;6.25;;
50519;SDS011;36468;44.098;3.078;2023-02-28T05:53:11;11.68;;;5.97;;
50519;SDS011;36468;44.098;3.078;2023-02-28T05:55:37;11.52;;;6.47;;
50519;SDS011;36468;44.098;3.078;2023-02-28T05:58:03;12.57;;;6.50;;
50519;SDS011;36468;44.098;3.078;2023-02-28T06:00:29;11.68;;;6.53;;
50519;SDS011;36468;44.098;3.078;2023-02-28T06:02:55;12.57;;;6.45;;
50519;SDS011;36468;44.098;3.078;2023-02-28T06:05:24;11.02;;;6.38;;
50519;SDS011;36468;44.098;3.078;2023-02-28T06:07:50;10.90;;;6.50;;
50519;SDS011;36468;44.098;3.078;2023-02-28T06:10:17;12.13;;;7.03;;
50519;SDS011;36468;44.098;3.078;2023-02-28T06:12:43;11.10;;;6.85;;
50519;SDS011;36468;44.098;3.078;2023-02-28T06:15:12;11.82;;;7.05;;
50519;SDS011;36468;44.098;3.078;2023-02-28T06:17:39;13.80;;;6.90;;
50519;SDS011;36468;44.098;3.078;2023-02-28T06:20:05;11.07;;;6.47;;
50519;SDS011;36468;44.098;3.078;2023-02-28T06:22:32;12.85;;;7.78;;
50519;SDS011;36468;44.098;3.078;2023-02-28T06:24:58;10.15;;;6.55;;
50519;SDS011;36468;44.098;3.078;2023-02-28T06:27:24;13.80;;;7.30;;
50519;SDS011;36468;44.098;3.078;2023-02-28T06:29:53;11.10;;;6.63;;
50519;SDS011;36468;44.098;3.078;2023-02-28T06:32:20;14.00;;;8.07;;
50519;SDS011;36468;44.098;3.078;2023-02-28T06:34:46;11.75;;;6.90;;
50519;SDS011;36468;44.098;3.078;2023-02-28T06:37:12;12.68;;;7.45;;
50519;SDS011;36468;44.098;3.078;2023-02-28T06:39:38;11.25;;;6.85;;
50519;SDS011;36468;44.098;3.078;2023-02-28T06:42:04;13.27;;;6.97;;
50519;SDS011;36468;44.098;3.078;2023-02-28T06:44:30;12.43;;;6.72;;
50519;SDS011;36468;44.098;3.078;2023-02-28T06:47:00;12.55;;;7.25;;
50519;SDS011;36468;44.098;3.078;2023-02-28T06:49:28;11.27;;;6.78;;
50519;SDS011;36468;44.098;3.078;2023-02-28T06:51:54;13.02;;;6.70;;
50519;SDS011;36468;44.098;3.078;2023-02-28T06:54:20;13.35;;;6.95;;
50519;SDS011;36468;44.098;3.078;2023-02-28T06:56:46;11.90;;;6.72;;
50519;SDS011;36468;44.098;3.078;2023-02-28T06:59:12;12.43;;;6.93;;
50519;SDS011;36468;44.098;3.078;2023-02-28T07:01:39;9.30;;;6.57;;
50519;SDS011;36468;44.098;3.078;2023-02-28T07:04:05;11.93;;;6.57;;
50519;SDS011;36468;44.098;3.078;2023-02-28T07:06:31;11.05;;;6.70;;
50519;SDS011;36468;44.098;3.078;2023-02-28T07:08:58;11.13;;;6.60;;
50519;SDS011;36468;44.098;3.078;2023-02-28T07:11:24;11.55;;;7.22;;
50519;SDS011;36468;44.098;3.078;2023-02-28T07:13:51;10.63;;;7.00;;
50519;SDS011;36468;44.098;3.078;2023-02-28T07:16:17;11.43;;;7.00;;
50519;SDS011;36468;44.098;3.078;2023-02-28T07:18:44;15.10;;;7.25;;
50519;SDS011;36468;44.098;3.078;2023-02-28T07:21:10;10.38;;;6.45;;
50519;SDS011;36468;44.098;3.078;2023-02-28T07:23:37;12.18;;;7.13;;
50519;SDS011;36468;44.098;3.078;2023-02-28T07:26:03;11.90;;;6.72;;
50519;SDS011;36468;44.098;3.078;2023-02-28T07:28:29;12.70;;;7.68;;
50519;SDS011;36468;44.098;3.078;2023-02-28T07:30:55;15.30;;;7.13;;
50519;SDS011;36468;44.098;3.078;2023-02-28T07:33:21;13.85;;;7.18;;
50519;SDS011;36468;44.098;3.078;2023-02-28T07:35:48;11.25;;;6.93;;
50519;SDS011;36468;44.098;3.078;2023-02-28T07:38:15;13.18;;;7.60;;
50519;SDS011;36468;44.098;3.078;2023-02-28T07:40:41;15.98;;;7.40;;
50519;SDS011;36468;44.098;3.078;2023-02-28T07:43:07;12.27;;;6.88;;
50519;SDS011;36468;44.098;3.078;2023-02-28T07:45:33;11.57;;;6.60;;
50519;SDS011;36468;44.098;3.078;2023-02-28T07:48:00;10.95;;;6.57;;
50519;SDS011;36468;44.098;3.078;2023-02-28T07:50:26;12.65;;;6.93;;
50519;SDS011;36468;44.098;3.078;2023-02-28T07:52:55;11.52;;;6.93;;
50519;SDS011;36468;44.098;3.078;2023-02-28T07:55:21;9.63;;;6.75;;
50519;SDS011;36468;44.098;3.078;2023-02-28T07:57:47;13.95;;;7.07;;
50519;SDS011;36468;44.098;3.078;2023-02-28T08:00:14;11.98;;;7.68;;
50519;SDS011;36468;44.098;3.078;2023-02-28T08:02:40;9.98;;;7.10;;
50519;SDS011;36468;44.098;3.078;2023-02-28T08:05:06;11.13;;;7.32;;
50519;SDS011;36468;44.098;3.078;2023-02-28T08:07:33;12.10;;;7.15;;
50519;SDS011;36468;44.098;3.078;2023-02-28T08:09:59;12.65;;;6.80;;
50519;SDS011;36468;44.098;3.078;2023-02-28T08:12:25;9.68;;;6.97;;
50519;SDS011;36468;44.098;3.078;2023-02-28T08:14:51;11.25;;;7.30;;
50519;SDS011;36468;44.098;3.078;2023-02-28T08:17:17;12.50;;;7.65;;
50519;SDS011;36468;44.098;3.078;2023-02-28T08:19:46;8.60;;;6.57;;
50519;SDS011;36468;44.098;3.078;2023-02-28T08:22:12;16.05;;;7.78;;
50519;SDS011;36468;44.098;3.078;2023-02-28T08:24:39;12.57;;;7.88;;
50519;SDS011;36468;44.098;3.078;2023-02-28T08:27:06;13.45;;;7.75;;
50519;SDS011;36468;44.098;3.078;2023-02-28T08:29:32;12.63;;;7.97;;
50519;SDS011;36468;44.098;3.078;2023-02-28T08:31:58;12.82;;;7.35;;
50519;SDS011;36468;44.098;3.078;2023-02-28T08:34:24;13.18;;;8.07;;
50519;SDS011;36468;44.098;3.078;2023-02-28T08:36:50;9.55;;;6.63;;
50519;SDS011;36468;44.098;3.078;2023-02-28T08:39:17;12.23;;;7.35;;
50519;SDS011;36468;44.098;3.078;2023-02-28T08:41:44;12.75;;;7.07;;
50519;SDS011;36468;44.098;3.078;2023-02-28T08:44:11;10.63;;;7.13;;
50519;SDS011;36468;44.098;3.078;2023-02-28T08:46:37;12.02;;;6.75;;
50519;SDS011;36468;44.098;3.078;2023-02-28T08:49:03;9.48;;;6.22;;
50519;SDS011;36468;44.098;3.078;2023-02-28T08:51:29;10.73;;;6.30;;
50519;SDS011;36468;44.098;3.078;2023-02-28T08:53:58;10.35;;;6.70;;
50519;SDS011;36468;44.098;3.078;2023-02-28T08:56:25;9.57;;;6.47;;
50519;SDS011;36468;44.098;3.078;2023-02-28T08:58:51;13.38;;;6.93;;
50519;SDS011;36468;44.098;3.078;2023-02-28T09:01:21;14.23;;;7.50;;
50519;SDS011;36468;44.098;3.078;2023-02-28T09:03:48;16.80;;;9.23;;
50519;SDS011;36468;44.098;3.078;2023-02-28T09:06:15;16.15;;;8.82;;
50519;SDS011;36468;44.098;3.078;2023-02-28T09:08:41;18.33;;;9.73;;
50519;SDS011;36468;44.098;3.078;2023-02-28T09:11:07;11.77;;;7.20;;
50519;SDS011;36468;44.098;3.078;2023-02-28T09:13:33;14.82;;;8.10;;
50519;SDS011;36468;44.098;3.078;2023-02-28T09:16:00;18.35;;;10.15;;
50519;SDS011;36468;44.098;3.078;2023-02-28T09:18:27;20.58;;;10.73;;
50519;SDS011;36468;44.098;3.078;2023-02-28T09:20:53;61.20;;;27.95;;
50519;SDS011;36468;44.098;3.078;2023-02-28T09:23:19;43.25;;;21.38;;
50519;SDS011;36468;44.098;3.078;2023-02-28T09:25:46;25.40;;;12.38;;
50519;SDS011;36468;44.098;3.078;2023-02-28T09:28:13;23.35;;;11.90;;
50519;SDS011;36468;44.098;3.078;2023-02-28T09:30:44;13.20;;;7.53;;
50519;SDS011;36468;44.098;3.078;2023-02-28T09:33:10;13.98;;;8.60;;
50519;SDS011;36468;44.098;3.078;2023-02-28T09:35:37;14.13;;;8.60;;
50519;SDS011;36468;44.098;3.078;2023-02-28T09:38:03;10.93;;;7.53;;
50519;SDS011;36468;44.098;3.078;2023-02-28T09:40:29;11.82;;;7.88;;
50519;SDS011;36468;44.098;3.078;2023-02-28T09:42:56;11.68;;;7.80;;
50519;SDS011;36468;44.098;3.078;2023-02-28T09:45:30;12.02;;;7.53;;
50519;SDS011;36468;44.098;3.078;2023-02-28T09:48:04;12.63;;;7.82;;
50519;SDS011;36468;44.098;3.078;2023-02-28T09:50:34;10.00;;;6.53;;
50519;SDS011;36468;44.098;3.078;2023-02-28T09:53:02;10.77;;;6.38;;
50519;SDS011;36468;44.098;3.078;2023-02-28T09:58:05;8.50;;;5.75;;
50519;SDS011;36468;44.098;3.078;2023-02-28T10:00:36;8.57;;;6.28;;
50519;SDS011;36468;44.098;3.078;2023-02-28T10:03:15;12.65;;;6.63;;
50519;SDS011;36468;44.098;3.078;2023-02-28T10:08:43;8.48;;;6.00;;
50519;SDS011;36468;44.098;3.078;2023-02-28T10:11:15;9.32;;;6.05;;
50519;SDS011;36468;44.098;3.078;2023-02-28T10:14:16;9.27;;;5.38;;
50519;SDS011;36468;44.098;3.078;2023-02-28T10:16:35;10.63;;;5.90;;
50519;SDS011;36468;44.098;3.078;2023-02-28T10:21:34;9.63;;;5.88;;
50519;SDS011;36468;44.098;3.078;2023-02-28T10:26:50;9.82;;;5.65;;
50519;SDS011;36468;44.098;3.078;2023-02-28T10:29:17;10.77;;;5.82;;
50519;SDS011;36468;44.098;3.078;2023-02-28T10:31:43;7.82;;;5.43;;
50519;SDS011;36468;44.098;3.078;2023-02-28T10:34:11;8.77;;;5.65;;
50519;SDS011;36468;44.098;3.078;2023-02-28T10:36:38;10.02;;;5.60;;
50519;SDS011;36468;44.098;3.078;2023-02-28T10:41:49;8.38;;;5.55;;
50519;SDS011;36468;44.098;3.078;2023-02-28T10:44:22;7.93;;;4.82;;
50519;SDS011;36468;44.098;3.078;2023-02-28T10:46:48;7.25;;;4.93;;
50519;SDS011;36468;44.098;3.078;2023-02-28T10:49:25;6.68;;;4.50;;
50519;SDS011;36468;44.098;3.078;2023-02-28T10:51:57;8.55;;;4.90;;
50519;SDS011;36468;44.098;3.078;2023-02-28T10:54:29;9.25;;;4.60;;
50519;SDS011;36468;44.098;3.078;2023-02-28T10:57:16;6.43;;;4.60;;
50519;SDS011;36468;44.098;3.078;2023-02-28T10:59:42;8.50;;;4.07;;
50519;SDS011;36468;44.098;3.078;2023-02-28T11:02:29;7.40;;;4.90;;
50519;SDS011;36468;44.098;3.078;2023-02-28T11:04:56;5.28;;;4.53;;
50519;SDS011;36468;44.098;3.078;2023-02-28T11:07:22;9.95;;;4.75;;
50519;SDS011;36468;44.098;3.078;2023-02-28T11:09:52;7.60;;;4.88;;
50519;SDS011;36468;44.098;3.078;2023-02-28T11:12:20;6.20;;;4.32;;
50519;SDS011;36468;44.098;3.078;2023-02-28T11:14:48;5.78;;;4.68;;
50519;SDS011;36468;44.098;3.078;2023-02-28T11:17:19;6.45;;;4.47;;
50519;SDS011;36468;44.098;3.078;2023-02-28T11:19:47;7.32;;;5.00;;
50519;SDS011;36468;44.098;3.078;2023-02-28T11:22:19;9.35;;;5.05;;
50519;SDS011;36468;44.098;3.078;2023-02-28T11:24:47;7.97;;;4.65;;
50519;SDS011;36468;44.098;3.078;2023-02-28T11:29:56;8.38;;;5.10;;
50519;SDS011;36468;44.098;3.078;2023-02-28T11:32:23;7.38;;;4.40;;
50519;SDS011;36468;44.098;3.078;2023-02-28T11:37:28;7.05;;;4.60;;
50519;SDS011;36468;44.098;3.078;2023-02-28T11:39:54;7.13;;;4.88;;
50519;SDS011;36468;44.098;3.078;2023-02-28T11:52:45;11.80;;;3.90;;
50519;SDS011;36468;44.098;3.078;2023-02-28T11:58:01;6.80;;;3.97;;
50519;SDS011;36468;44.098;3.078;2023-02-28T12:00:49;5.32;;;4.10;;
50519;SDS011;36468;44.098;3.078;2023-02-28T12:03:39;8.02;;;4.20;;
50519;SDS011;36468;44.098;3.078;2023-02-28T12:06:20;7.55;;;4.78;;
50519;SDS011;36468;44.098;3.078;2023-02-28T12:12:02;10.23;;;6.10;;
50519;SDS011;36468;44.098;3.078;2023-02-28T12:19:12;8.82;;;5.40;;
50519;SDS011;36468;44.098;3.078;2023-02-28T12:21:49;9.13;;;4.85;;
50519;SDS011;36468;44.098;3.078;2023-02-28T12:26:44;5.10;;;4.15;;
50519;SDS011;36468;44.098;3.078;2023-02-28T12:31:38;8.23;;;4.57;;
50519;SDS011;36468;44.098;3.078;2023-02-28T12:34:13;6.55;;;4.38;;
50519;SDS011;36468;44.098;3.078;2023-02-28T12:36:41;5.63;;;4.50;;
50519;SDS011;36468;44.098;3.078;2023-02-28T12:39:20;11.88;;;4.78;;
50519;SDS011;36468;44.098;3.078;2023-02-28T12:44:23;7.70;;;4.90;;
50519;SDS011;36468;44.098;3.078;2023-02-28T12:46:52;6.75;;;4.70;;
50519;SDS011;36468;44.098;3.078;2023-02-28T12:49:25;7.10;;;4.45;;
50519;SDS011;36468;44.098;3.078;2023-02-28T12:51:53;6.45;;;4.47;;
50519;SDS011;36468;44.098;3.078;2023-02-28T12:54:28;8.73;;;5.65;;
50519;SDS011;36468;44.098;3.078;2023-02-28T12:57:13;7.60;;;5.00;;
50519;SDS011;36468;44.098;3.078;2023-02-28T12:59:48;10.90;;;4.35;;
50519;SDS011;36468;44.098;3.078;2023-02-28T13:13:05;8.93;;;5.55;;
50519;SDS011;36468;44.098;3.078;2023-02-28T13:15:31;11.60;;;5.18;;
50519;SDS011;36468;44.098;3.078;2023-02-28T13:18:03;9.05;;;5.32;;
50519;SDS011;36468;44.098;3.078;2023-02-28T13:20:32;8.27;;;5.00;;
50519;SDS011;36468;44.098;3.078;2023-02-28T13:22:59;7.72;;;5.05;;
50519;SDS011;36468;44.098;3.078;2023-02-28T13:28:00;10.32;;;4.85;;
50519;SDS011;36468;44.098;3.078;2023-02-28T13:33:22;7.72;;;4.78;;
50519;SDS011;36468;44.098;3.078;2023-02-28T13:35:50;10.32;;;5.20;;
50519;SDS011;36468;44.098;3.078;2023-02-28T13:38:32;8.50;;;4.85;;
50519;SDS011;36468;44.098;3.078;2023-02-28T13:43:29;10.10;;;5.57;;
50519;SDS011;36468;44.098;3.078;2023-02-28T13:46:12;10.77;;;5.60;;
50519;SDS011;36468;44.098;3.078;2023-02-28T13:48:38;9.00;;;4.85;;
50519;SDS011;36468;44.098;3.078;2023-02-28T13:51:26;6.90;;;4.95;;
50519;SDS011;36468;44.098;3.078;2023-02-28T13:54:24;9.27;;;5.07;;
50519;SDS011;36468;44.098;3.078;2023-02-28T13:56:55;7.90;;;5.55;;
50519;SDS011;36468;44.098;3.078;2023-02-28T13:59:26;8.15;;;5.47;;
50519;SDS011;36468;44.098;3.078;2023-02-28T14:07:15;6.35;;;5.22;;
50519;SDS011;36468;44.098;3.078;2023-02-28T14:09:45;8.57;;;5.43;;
50519;SDS011;36468;44.098;3.078;2023-02-28T14:14:56;7.32;;;5.30;;
50519;SDS011;36468;44.098;3.078;2023-02-28T14:17:23;10.82;;;6.15;;
50519;SDS011;36468;44.098;3.078;2023-02-28T14:19:50;9.15;;;5.70;;
50519;SDS011;36468;44.098;3.078;2023-02-28T14:25:04;7.82;;;5.53;;
50519;SDS011;36468;44.098;3.078;2023-02-28T14:38:07;12.60;;;7.43;;
50519;SDS011;36468;44.098;3.078;2023-02-28T14:40:38;13.10;;;6.67;;
50519;SDS011;36468;44.098;3.078;2023-02-28T14:43:05;16.38;;;6.80;;
50519;SDS011;36468;44.098;3.078;2023-02-28T14:45:33;10.02;;;6.38;;
50519;SDS011;36468;44.098;3.078;2023-02-28T14:47:59;10.48;;;6.15;;
50519;SDS011;36468;44.098;3.078;2023-02-28T14:50:30;8.00;;;5.95;;
50519;SDS011;36468;44.098;3.078;2023-02-28T14:52:57;10.93;;;5.90;;
50519;SDS011;36468;44.098;3.078;2023-02-28T14:55:25;8.65;;;5.63;;
50519;SDS011;36468;44.098;3.078;2023-02-28T14:57:56;10.80;;;6.45;;
50519;SDS011;36468;44.098;3.078;2023-02-28T15:00:27;7.57;;;5.38;;
50519;SDS011;36468;44.098;3.078;2023-02-28T15:02:54;9.27;;;6.05;;
50519;SDS011;36468;44.098;3.078;2023-02-28T15:05:27;10.73;;;6.00;;
50519;SDS011;36468;44.098;3.078;2023-02-28T15:10:54;10.32;;;6.47;;
50519;SDS011;36468;44.098;3.078;2023-02-28T15:13:21;11.43;;;7.10;;
50519;SDS011;36468;44.098;3.078;2023-02-28T15:18:15;9.02;;;5.80;;
50519;SDS011;36468;44.098;3.078;2023-02-28T15:20:43;9.77;;;6.78;;
50519;SDS011;36468;44.098;3.078;2023-02-28T15:23:10;11.63;;;6.70;;
50519;SDS011;36468;44.098;3.078;2023-02-28T15:25:36;13.35;;;7.07;;
50519;SDS011;36468;44.098;3.078;2023-02-28T15:28:02;10.05;;;5.90;;
50519;SDS011;36468;44.098;3.078;2023-02-28T15:30:29;9.93;;;6.20;;
50519;SDS011;36468;44.098;3.078;2023-02-28T15:35:37;9.65;;;6.03;;
50519;SDS011;36468;44.098;3.078;2023-02-28T15:40:46;8.88;;;6.10;;
50519;SDS011;36468;44.098;3.078;2023-02-28T15:43:34;8.73;;;6.13;;
50519;SDS011;36468;44.098;3.078;2023-02-28T15:46:02;14.80;;;6.65;;
50519;SDS011;36468;44.098;3.078;2023-02-28T15:48:35;10.38;;;6.55;;
50519;SDS011;36468;44.098;3.078;2023-02-28T15:53:43;9.70;;;6.10;;
50519;SDS011;36468;44.098;3.078;2023-02-28T15:56:17;9.82;;;5.97;;
50519;SDS011;36468;44.098;3.078;2023-02-28T15:58:46;11.00;;;5.97;;
50519;SDS011;36468;44.098;3.078;2023-02-28T16:03:48;10.30;;;5.50;;
50519;SDS011;36468;44.098;3.078;2023-02-28T16:08:41;10.00;;;5.88;;
50519;SDS011;36468;44.098;3.078;2023-02-28T16:11:08;11.10;;;6.20;;
50519;SDS011;36468;44.098;3.078;2023-02-28T16:13:34;12.15;;;6.97;;
50519;SDS011;36468;44.098;3.078;2023-02-28T16:16:00;9.77;;;5.80;;
50519;SDS011;36468;44.098;3.078;2023-02-28T16:18:26;8.88;;;5.82;;
50519;SDS011;36468;44.098;3.078;2023-02-28T16:20:52;10.45;;;6.13;;
50519;SDS011;36468;44.098;3.078;2023-02-28T16:23:19;12.27;;;6.38;;
50519;SDS011;36468;44.098;3.078;2023-02-28T16:25:45;11.63;;;6.43;;
50519;SDS011;36468;44.098;3.078;2023-02-28T16:28:44;9.13;;;6.20;;
50519;SDS011;36468;44.098;3.078;2023-02-28T16:31:05;10.52;;;6.43;;
50519;SDS011;36468;44.098;3.078;2023-02-28T16:33:32;9.30;;;6.25;;
50519;SDS011;36468;44.098;3.078;2023-02-28T16:35:58;11.60;;;6.13;;
50519;SDS011;36468;44.098;3.078;2023-02-28T16:38:24;8.77;;;6.20;;
50519;SDS011;36468;44.098;3.078;2023-02-28T16:40:51;12.95;;;6.65;;
50519;SDS011;36468;44.098;3.078;2023-02-28T16:43:18;13.10;;;7.68;;
50519;SDS011;36468;44.098;3.078;2023-02-28T16:45:46;15.43;;;7.18;;
50519;SDS011;36468;44.098;3.078;2023-02-28T16:48:13;9.88;;;6.20;;
50519;SDS011;36468;44.098;3.078;2023-02-28T16:50:40;14.85;;;7.07;;
50519;SDS011;36468;44.098;3.078;2023-02-28T16:53:06;14.38;;;7.57;;
50519;SDS011;36468;44.098;3.078;2023-02-28T16:55:32;13.55;;;7.18;;
50519;SDS011;36468;44.098;3.078;2023-02-28T16:57:59;15.52;;;6.72;;
50519;SDS011;36468;44.098;3.078;2023-02-28T17:00:26;14.15;;;7.55;;
50519;SDS011;36468;44.098;3.078;2023-02-28T17:02:52;17.15;;;8.00;;
50519;SDS011;36468;44.098;3.078;2023-02-28T17:05:18;17.98;;;9.35;;
50519;SDS011;36468;44.098;3.078;2023-02-28T17:07:45;17.20;;;8.63;;
50519;SDS011;36468;44.098;3.078;2023-02-28T17:12:40;24.80;;;12.25;;
50519;SDS011;36468;44.098;3.078;2023-02-28T17:15:06;15.02;;;8.45;;